Time;durP1;ratioP1;P1;durP2;ratioP2;P2;SDS_P1;SDS_P2;PMS_P1;PMS_P2;Temp;Humidity;BMP_temperature;BMP_pressure;BME280_temperature;BME280_humidity;BME280_pressure;Samples;Min_cycle;Max_cycle;Signal;HPM_P1;HPM_P2
2022/10/21 00:01:41;;;;;;;9.80;8.80;;;15.90;99.90;;;;;;5014307;28;20689;-86
2022/10/21 00:04:06;;;;;;;9.18;8.38;;;15.90;99.90;;;;;;5034390;28;20242;-87
2022/10/21 00:06:32;;;;;;;9.38;8.48;;;15.80;99.90;;;;;;5033419;28;20198;-86
2022/10/21 00:08:57;;;;;;;10.18;9.25;;;15.80;99.90;;;;;;5032837;28;20195;-86
2022/10/21 00:11:23;;;;;;;11.18;8.85;;;15.80;99.90;;;;;;5032979;28;20226;-86
2022/10/21 00:13:49;;;;;;;9.45;8.52;;;15.80;99.90;;;;;;5032410;28;20210;-87
2022/10/21 00:16:16;;;;;;;11.57;9.50;;;15.90;99.90;;;;;;5032271;28;20191;-86
2022/10/21 00:18:44;;;;;;;10.50;9.48;;;16.00;99.90;;;;;;5031680;28;20666;-86
2022/10/21 00:21:14;;;;;;;9.68;8.88;;;15.80;99.90;;;;;;5033396;28;20222;-87
2022/10/21 00:23:41;;;;;;;10.30;9.30;;;15.90;99.90;;;;;;5032021;28;20184;-87
2022/10/21 00:26:06;;;;;;;12.97;9.73;;;15.80;99.90;;;;;;5033826;28;20223;-86
2022/10/21 00:28:33;;;;;;;11.10;9.67;;;15.80;99.90;;;;;;5015758;28;20217;-86
2022/10/21 00:30:58;;;;;;;10.82;9.52;;;15.70;99.90;;;;;;5033470;28;20221;-87
2022/10/21 00:33:26;;;;;;;16.80;9.97;;;15.70;99.90;;;;;;5031897;28;20190;-86
2022/10/21 00:35:53;;;;;;;14.43;10.27;;;15.70;99.90;;;;;;5033237;28;20179;-86
2022/10/21 00:38:19;;;;;;;13.83;10.93;;;15.70;99.90;;;;;;5032698;28;20179;-86
2022/10/21 00:40:45;;;;;;;13.70;12.17;;;15.60;99.90;;;;;;5031432;28;20215;-86
2022/10/21 00:43:11;;;;;;;13.27;11.53;;;15.60;99.90;;;;;;5032034;28;20287;-87
2022/10/21 00:45:37;;;;;;;12.97;11.37;;;15.50;99.90;;;;;;5033224;28;20183;-86
2022/10/21 00:48:07;;;;;;;11.93;10.77;;;15.60;99.90;;;;;;5033111;28;20183;-86
2022/10/21 00:50:44;;;;;;;11.67;10.50;;;15.70;99.90;;;;;;5032980;28;20288;-87
2022/10/21 00:53:13;;;;;;;12.65;11.07;;;15.70;99.90;;;;;;5033285;28;20434;-87
2022/10/21 00:55:46;;;;;;;13.00;11.03;;;15.70;99.90;;;;;;5032856;28;20283;-86
2022/10/21 00:58:12;;;;;;;14.98;11.88;;;15.60;99.90;;;;;;5033385;28;20285;-86
2022/10/21 01:00:38;;;;;;;11.10;9.95;;;15.50;99.90;;;;;;5032809;28;20218;-86
2022/10/21 01:03:05;;;;;;;11.30;10.17;;;15.60;99.90;;;;;;5031745;28;20191;-86
2022/10/21 01:05:32;;;;;;;10.15;9.18;;;15.70;99.90;;;;;;5033270;28;20248;-86
2022/10/21 01:07:58;;;;;;;9.65;8.40;;;15.70;99.90;;;;;;5033952;28;20172;-86
2022/10/21 01:10:23;;;;;;;11.70;9.65;;;15.80;99.90;;;;;;5031619;28;20291;-89
2022/10/21 01:12:52;;;;;;;11.98;9.65;;;15.90;99.90;;;;;;5031062;28;20192;-86
2022/10/21 01:15:35;;;;;;;10.57;9.45;;;15.90;99.90;;;;;;5032245;28;20218;-85
2022/10/21 01:18:13;;;;;;;10.68;9.85;;;15.90;99.90;;;;;;5032513;28;20187;-86
2022/10/21 01:20:50;;;;;;;11.15;10.15;;;15.90;99.90;;;;;;5032101;28;20211;-87
2022/10/21 01:23:46;;;;;;;9.93;9.00;;;15.90;99.90;;;;;;5032512;28;20188;-85
2022/10/21 01:26:46;;;;;;;11.27;10.18;;;15.90;99.90;;;;;;5028888;28;20532;-86
2022/10/21 01:29:18;;;;;;;10.07;9.05;;;15.90;99.90;;;;;;5019267;28;20259;-86
2022/10/21 01:31:55;;;;;;;9.05;8.32;;;15.80;99.90;;;;;;5023243;28;20202;-86
2022/10/21 01:34:45;;;;;;;10.70;8.73;;;15.90;99.90;;;;;;5036550;28;20220;-85
2022/10/21 01:37:17;;;;;;;9.05;8.15;;;15.90;99.90;;;;;;5028755;28;20241;-87
2022/10/21 01:40:01;;;;;;;9.18;8.18;;;15.80;99.90;;;;;;5036140;28;20250;-88
2022/10/21 01:42:50;;;;;;;10.15;9.10;;;15.80;99.90;;;;;;5036119;28;20188;-85
2022/10/21 01:45:31;;;;;;;8.90;8.10;;;15.80;99.90;;;;;;5034617;28;20194;-85
2022/10/21 01:48:04;;;;;;;9.88;8.98;;;15.80;99.90;;;;;;5036470;28;20206;-86
2022/10/21 01:50:35;;;;;;;10.23;9.32;;;15.80;99.90;;;;;;5036085;28;20290;-86
2022/10/21 01:53:06;;;;;;;9.05;8.25;;;15.80;99.90;;;;;;5036158;28;20216;-86
2022/10/21 01:55:32;;;;;;;11.07;7.60;;;15.80;99.90;;;;;;5035990;28;20210;-88
2022/10/21 01:58:07;;;;;;;11.60;7.90;;;15.80;99.90;;;;;;5016657;28;20174;-86
2022/10/21 02:00:35;;;;;;;8.25;7.55;;;15.80;99.90;;;;;;5029341;28;20319;-86
2022/10/21 02:03:06;;;;;;;8.70;7.85;;;15.80;99.90;;;;;;5036377;28;20191;-86
2022/10/21 02:05:33;;;;;;;9.07;8.05;;;15.80;99.90;;;;;;5042122;28;20235;-91
2022/10/21 02:07:59;;;;;;;8.50;7.65;;;15.90;99.90;;;;;;5060815;28;20171;-91
2022/10/21 02:10:28;;;;;;;8.02;7.35;;;15.90;99.90;;;;;;5049488;28;20232;-86
2022/10/21 02:12:58;;;;;;;8.30;7.50;;;15.90;99.90;;;;;;5036374;28;20179;-88
2022/10/21 02:15:27;;;;;;;9.30;8.30;;;15.80;99.90;;;;;;5036703;28;20203;-85
2022/10/21 02:18:03;;;;;;;9.02;8.32;;;15.80;99.90;;;;;;5035002;28;20617;-86
2022/10/21 02:20:33;;;;;;;10.00;8.93;;;15.70;99.90;;;;;;5035821;28;20272;-86
2022/10/21 02:22:59;;;;;;;8.55;7.85;;;15.70;99.90;;;;;;5035470;28;20179;-86
2022/10/21 02:25:28;;;;;;;9.07;8.27;;;15.60;99.90;;;;;;5035616;28;20263;-86
2022/10/21 02:27:54;;;;;;;8.50;7.90;;;15.50;99.90;;;;;;5035756;28;20215;-88
2022/10/21 02:30:20;;;;;;;9.02;8.32;;;15.60;99.90;;;;;;5017602;28;20299;-86
2022/10/21 02:32:50;;;;;;;10.57;8.50;;;15.70;99.90;;;;;;5035373;28;20184;-86
2022/10/21 02:35:30;;;;;;;8.02;7.32;;;15.70;99.90;;;;;;5034566;28;20227;-86
2022/10/21 02:38:25;;;;;;;8.40;7.68;;;15.50;99.90;;;;;;5036282;28;20171;-86
2022/10/21 02:40:59;;;;;;;7.28;6.68;;;15.60;99.90;;;;;;5035390;28;20250;-87
2022/10/21 02:43:29;;;;;;;8.05;7.35;;;15.60;99.90;;;;;;5034471;28;20188;-86
2022/10/21 02:45:59;;;;;;;8.27;7.57;;;15.50;99.90;;;;;;5033390;28;20196;-88
2022/10/21 02:48:25;;;;;;;7.75;7.07;;;15.60;99.90;;;;;;5037405;28;20234;-88
2022/10/21 02:50:51;;;;;;;6.93;6.43;;;15.50;99.90;;;;;;5036564;28;20212;-86
2022/10/21 02:53:16;;;;;;;7.63;6.80;;;15.60;99.90;;;;;;5035028;28;20198;-88
2022/10/21 02:55:42;;;;;;;12.60;6.90;;;15.70;99.90;;;;;;5034553;28;20207;-86
2022/10/21 02:58:08;;;;;;;7.13;6.53;;;15.60;99.90;;;;;;5034916;28;20192;-86
2022/10/21 03:00:34;;;;;;;7.03;6.53;;;15.60;99.90;;;;;;5035291;28;20210;-88
2022/10/21 03:02:59;;;;;;;8.02;7.35;;;15.60;99.90;;;;;;5035003;28;20244;-86
2022/10/21 03:05:25;;;;;;;6.95;6.38;;;15.60;99.90;;;;;;5034676;28;20776;-85
2022/10/21 03:07:51;;;;;;;7.43;6.82;;;15.60;99.90;;;;;;5038611;28;20680;-87
2022/10/21 03:10:16;;;;;;;8.65;7.47;;;15.60;99.90;;;;;;5021528;28;20236;-86
2022/10/21 03:12:42;;;;;;;8.13;7.32;;;15.60;99.90;;;;;;5021403;28;20183;-86
2022/10/21 03:15:08;;;;;;;7.93;7.20;;;15.50;99.90;;;;;;5005702;28;20208;-86
2022/10/21 03:17:34;;;;;;;7.30;6.70;;;15.50;99.90;;;;;;5024685;28;20776;-86
2022/10/21 03:19:59;;;;;;;8.40;7.60;;;15.60;99.90;;;;;;5031349;28;20222;-85
2022/10/21 03:22:25;;;;;;;9.23;7.88;;;15.50;99.90;;;;;;5004814;28;20245;-85
2022/10/21 03:24:51;;;;;;;16.70;7.88;;;15.50;99.90;;;;;;5021404;28;20278;-85
2022/10/21 03:27:16;;;;;;;8.98;8.15;;;15.50;99.90;;;;;;5021533;28;20656;-86
2022/10/21 03:29:42;;;;;;;9.27;8.03;;;15.50;99.90;;;;;;5021301;28;20189;-86
2022/10/21 03:32:08;;;;;;;8.90;8.02;;;15.50;99.90;;;;;;5038567;28;20569;-86
2022/10/21 03:34:33;;;;;;;10.25;9.23;;;15.40;99.90;;;;;;5037611;28;20270;-85
2022/10/21 03:36:59;;;;;;;9.98;9.10;;;15.40;99.90;;;;;;5038704;28;20184;-89
2022/10/21 03:39:28;;;;;;;11.57;9.30;;;15.50;99.90;;;;;;5038463;28;20182;-86
2022/10/21 03:41:53;;;;;;;11.17;10.07;;;15.50;99.90;;;;;;5037348;28;20727;-85
2022/10/21 03:44:19;;;;;;;10.03;9.33;;;15.50;99.90;;;;;;5037777;28;20187;-86
2022/10/21 03:46:44;;;;;;;10.83;8.87;;;15.50;99.90;;;;;;5038600;28;20611;-85
2022/10/21 03:49:10;;;;;;;10.17;8.90;;;15.50;99.90;;;;;;5037084;28;20182;-85
2022/10/21 03:51:36;;;;;;;9.90;9.00;;;15.50;99.90;;;;;;5038089;28;20217;-87
2022/10/21 03:54:02;;;;;;;10.20;9.37;;;15.40;99.90;;;;;;5038230;28;20259;-88
2022/10/21 03:56:27;;;;;;;12.05;10.82;;;15.40;99.90;;;;;;5037575;28;20213;-86
2022/10/21 03:58:53;;;;;;;10.70;9.73;;;15.40;99.90;;;;;;5038975;28;20182;-86
2022/10/21 04:01:19;;;;;;;11.80;10.67;;;15.40;99.90;;;;;;5038822;28;20210;-86
2022/10/21 04:03:44;;;;;;;10.53;9.13;;;15.30;99.90;;;;;;5037383;28;20194;-86
2022/10/21 04:06:10;;;;;;;12.77;10.77;;;15.30;99.90;;;;;;5038125;28;20583;-85
2022/10/21 04:08:36;;;;;;;11.23;10.13;;;15.40;99.90;;;;;;5037368;28;20210;-85
2022/10/21 04:11:01;;;;;;;10.77;9.87;;;15.40;99.90;;;;;;5020269;28;20214;-87
2022/10/21 04:13:27;;;;;;;11.63;9.98;;;15.40;99.90;;;;;;5037398;28;20730;-86
2022/10/21 04:15:58;;;;;;;10.20;9.35;;;15.40;99.90;;;;;;5037334;28;20206;-85
2022/10/21 04:18:24;;;;;;;11.02;9.40;;;15.40;99.90;;;;;;5040393;28;20776;-89
2022/10/21 04:20:49;;;;;;;9.43;8.63;;;15.40;99.90;;;;;;5052845;28;20218;-86
2022/10/21 04:23:15;;;;;;;10.13;9.25;;;15.40;99.90;;;;;;5052222;28;20195;-85
2022/10/21 04:25:43;;;;;;;10.27;9.53;;;15.50;99.90;;;;;;5047656;28;20194;-86
2022/10/21 04:28:09;;;;;;;10.27;9.38;;;15.50;99.90;;;;;;5038305;28;20271;-85
2022/10/21 04:30:34;;;;;;;11.02;8.68;;;15.50;99.90;;;;;;5040388;28;20236;-86
2022/10/21 04:33:00;;;;;;;9.48;8.73;;;15.50;99.90;;;;;;5041938;28;20197;-84
2022/10/21 04:35:26;;;;;;;34.28;31.13;;;15.50;99.90;;;;;;5041437;28;20233;-85
2022/10/21 04:37:51;;;;;;;13.48;12.18;;;15.50;99.90;;;;;;5039615;28;20204;-86
2022/10/21 04:40:17;;;;;;;10.55;9.75;;;15.50;99.90;;;;;;5040183;28;20218;-84
2022/10/21 04:42:47;;;;;;;34.47;31.48;;;15.50;99.90;;;;;;5040128;28;20815;-84
2022/10/21 04:45:12;;;;;;;9.60;8.77;;;15.60;99.90;;;;;;5040827;28;20247;-85
2022/10/21 04:47:38;;;;;;;10.00;7.97;;;15.40;99.90;;;;;;5041198;28;20246;-84
2022/10/21 04:50:04;;;;;;;9.10;8.40;;;15.40;99.90;;;;;;5041087;28;20215;-85
2022/10/21 04:52:30;;;;;;;20.53;18.63;;;15.50;99.90;;;;;;5047824;28;20242;-86
2022/10/21 04:54:56;;;;;;;13.80;12.70;;;15.40;99.90;;;;;;5052698;28;20229;-86
2022/10/21 04:57:21;;;;;;;8.43;7.70;;;15.40;99.90;;;;;;5044673;28;20202;-85
2022/10/21 04:59:47;;;;;;;8.07;7.47;;;15.40;99.90;;;;;;5038653;28;20396;-85
2022/10/21 05:02:12;;;;;;;9.40;8.60;;;15.50;99.90;;;;;;5039463;28;20221;-84
2022/10/21 05:04:38;;;;;;;8.63;7.83;;;15.40;99.90;;;;;;5040147;28;20196;-85
2022/10/21 05:07:04;;;;;;;8.57;7.33;;;15.40;99.90;;;;;;5040251;28;20697;-84
2022/10/21 05:09:30;;;;;;;7.90;7.13;;;15.50;99.90;;;;;;5039532;28;20198;-87
2022/10/21 05:11:55;;;;;;;7.97;7.27;;;15.30;99.90;;;;;;5038290;28;20262;-86
2022/10/21 05:14:21;;;;;;;7.30;6.80;;;15.30;99.90;;;;;;5040640;28;20223;-85
2022/10/21 05:16:46;;;;;;;7.97;7.03;;;15.20;99.90;;;;;;5042966;28;20190;-84
2022/10/21 05:19:12;;;;;;;7.40;6.85;;;15.20;99.90;;;;;;5048451;28;20191;-86
2022/10/21 05:21:38;;;;;;;8.55;7.75;;;15.20;99.90;;;;;;5048790;28;20242;-87
2022/10/21 05:24:04;;;;;;;9.13;8.23;;;15.20;99.90;;;;;;5044546;28;20194;-85
2022/10/21 05:26:30;;;;;;;9.57;8.63;;;15.00;99.90;;;;;;5038870;28;20203;-86
2022/10/21 05:28:58;;;;;;;9.50;8.80;;;15.00;99.90;;;;;;5039000;28;20236;-87
2022/10/21 05:31:25;;;;;;;9.67;8.87;;;15.00;99.90;;;;;;5039397;28;20213;-86
2022/10/21 05:33:50;;;;;;;10.10;9.30;;;14.90;99.90;;;;;;5039520;28;20214;-87
2022/10/21 05:36:16;;;;;;;9.53;8.73;;;15.00;99.90;;;;;;5035913;28;20184;-85
2022/10/21 05:38:42;;;;;;;10.47;9.57;;;14.90;99.90;;;;;;5039351;28;20185;-85
2022/10/21 05:41:09;;;;;;;9.50;8.73;;;14.90;99.90;;;;;;5038934;28;20682;-84
2022/10/21 05:43:36;;;;;;;10.67;9.60;;;15.00;99.90;;;;;;5039165;28;20279;-85
2022/10/21 05:46:02;;;;;;;10.97;9.87;;;15.00;99.90;;;;;;5036470;28;20178;-85
2022/10/21 05:48:28;;;;;;;10.43;9.53;;;15.00;99.90;;;;;;5040223;28;20203;-85
2022/10/21 05:50:55;;;;;;;9.77;8.97;;;15.00;99.90;;;;;;5039394;28;20220;-85
2022/10/21 05:53:24;;;;;;;9.87;8.97;;;14.90;99.90;;;;;;5036684;28;20181;-86
2022/10/21 05:56:04;;;;;;;10.67;9.63;;;15.00;99.90;;;;;;5037112;28;20209;-86
2022/10/21 05:58:31;;;;;;;10.67;9.70;;;15.10;99.90;;;;;;5039340;28;20190;-85
2022/10/21 06:00:57;;;;;;;11.80;10.60;;;15.10;99.90;;;;;;5037691;28;20214;-86
2022/10/21 06:03:28;;;;;;;10.90;10.00;;;15.10;99.90;;;;;;5040159;28;20185;-86
2022/10/21 06:05:58;;;;;;;10.57;9.60;;;15.20;99.90;;;;;;5038587;28;20652;-85
2022/10/21 06:08:24;;;;;;;11.30;9.53;;;15.30;99.90;;;;;;5039064;28;20739;-85
2022/10/21 06:10:59;;;;;;;10.23;9.23;;;15.20;99.90;;;;;;5037744;28;20211;-84
2022/10/21 06:13:25;;;;;;;9.70;8.70;;;15.20;99.90;;;;;;5040608;28;20197;-85
2022/10/21 06:15:50;;;;;;;9.57;8.60;;;15.30;99.90;;;;;;5043790;28;20220;-86
2022/10/21 06:18:16;;;;;;;10.53;9.53;;;15.20;99.90;;;;;;5044443;28;20187;-85
2022/10/21 06:20:42;;;;;;;9.43;8.63;;;15.20;99.90;;;;;;5043725;28;20590;-86
2022/10/21 06:23:07;;;;;;;10.60;9.70;;;15.20;99.90;;;;;;5044321;28;20526;-86
2022/10/21 06:25:33;;;;;;;10.00;9.13;;;15.30;99.90;;;;;;5042095;28;20371;-87
2022/10/21 06:27:58;;;;;;;8.77;8.07;;;15.30;99.90;;;;;;5043457;28;20784;-85
2022/10/21 06:30:24;;;;;;;9.88;8.98;;;15.30;99.90;;;;;;5042256;28;20203;-86
2022/10/21 06:32:50;;;;;;;10.30;9.30;;;15.40;99.90;;;;;;5042206;28;20198;-86
2022/10/21 06:35:16;;;;;;;10.40;9.50;;;15.60;99.90;;;;;;5041356;28;20215;-86
2022/10/21 06:37:41;;;;;;;8.85;8.15;;;15.60;99.90;;;;;;5041135;28;20210;-87
2022/10/21 06:40:08;;;;;;;10.73;8.82;;;15.60;99.90;;;;;;5039644;28;20219;-86
2022/10/21 06:42:33;;;;;;;9.43;8.50;;;15.60;99.90;;;;;;5037948;28;20255;-86
2022/10/21 06:44:59;;;;;;;9.88;8.98;;;15.50;99.90;;;;;;5013415;28;20617;-85
2022/10/21 06:47:24;;;;;;;9.27;8.43;;;15.50;99.90;;;;;;5041543;28;20198;-86
2022/10/21 06:49:50;;;;;;;10.80;9.83;;;15.50;99.90;;;;;;5041998;28;20254;-87
2022/10/21 06:52:15;;;;;;;9.50;8.70;;;15.40;99.90;;;;;;5042115;28;20196;-86
2022/10/21 06:54:41;;;;;;;9.57;8.63;;;15.50;99.90;;;;;;5040749;28;20224;-86
2022/10/21 06:57:07;;;;;;;10.63;9.63;;;15.50;99.90;;;;;;5041333;28;20190;-86
2022/10/21 06:59:32;;;;;;;9.32;8.50;;;15.50;99.90;;;;;;5042341;28;20188;-85
2022/10/21 07:01:58;;;;;;;9.32;8.43;;;15.60;99.90;;;;;;5041063;28;20274;-86
2022/10/21 07:04:23;;;;;;;11.10;9.82;;;15.50;99.90;;;;;;5041555;28;20282;-86
2022/10/21 07:06:49;;;;;;;10.50;8.30;;;15.50;99.90;;;;;;5041088;28;20196;-86
2022/10/21 07:09:15;;;;;;;8.98;8.07;;;15.50;99.90;;;;;;5042481;28;20230;-86
2022/10/21 07:11:41;;;;;;;11.13;10.02;;;15.50;99.90;;;;;;5041582;28;20208;-86
2022/10/21 07:14:06;;;;;;;10.97;9.83;;;15.40;99.90;;;;;;5041238;28;20264;-86
2022/10/21 07:16:35;;;;;;;9.63;8.82;;;15.40;99.90;;;;;;5041523;28;20191;-86
2022/10/21 07:19:00;;;;;;;9.53;8.63;;;15.40;99.90;;;;;;5041471;28;20178;-86
2022/10/21 07:21:29;;;;;;;9.60;8.70;;;15.40;99.90;;;;;;5040271;28;20220;-86
2022/10/21 07:23:56;;;;;;;9.00;8.30;;;15.60;99.90;;;;;;5041619;28;20193;-86
2022/10/21 07:26:23;;;;;;;11.10;9.88;;;15.60;99.90;;;;;;5041378;28;20213;-86
2022/10/21 07:28:49;;;;;;;10.05;8.35;;;15.70;99.90;;;;;;5040797;28;20389;-86
2022/10/21 07:31:19;;;;;;;9.20;8.02;;;15.70;99.90;;;;;;5041927;28;20208;-86
2022/10/21 07:33:45;;;;;;;9.48;8.50;;;15.70;99.90;;;;;;5042898;28;20854;-86
2022/10/21 07:36:19;;;;;;;9.30;8.50;;;15.80;99.90;;;;;;5042304;28;20197;-86
2022/10/21 07:38:46;;;;;;;10.15;7.55;;;15.70;99.90;;;;;;5048509;28;20216;-87
2022/10/21 07:41:17;;;;;;;9.90;9.00;;;15.70;99.90;;;;;;5057072;28;20206;-88
2022/10/21 07:43:43;;;;;;;11.98;9.27;;;15.70;99.90;;;;;;5043878;28;20204;-86
2022/10/21 07:46:09;;;;;;;8.85;7.95;;;15.70;99.90;;;;;;5042123;28;20216;-86
2022/10/21 07:48:35;;;;;;;10.32;8.80;;;15.70;99.90;;;;;;5042527;28;20284;-86
2022/10/21 07:51:07;;;;;;;11.10;8.75;;;15.70;99.90;;;;;;5042185;28;20220;-86
2022/10/21 07:53:33;;;;;;;9.93;8.73;;;15.80;99.90;;;;;;5043008;28;20536;-86
2022/10/21 07:56:13;;;;;;;10.18;9.20;;;15.80;99.90;;;;;;5042863;28;20242;-86
2022/10/21 07:58:39;;;;;;;11.30;9.18;;;15.90;99.90;;;;;;5039798;28;20187;-85
2022/10/21 08:01:06;;;;;;;9.20;8.20;;;15.90;99.90;;;;;;5041000;28;20269;-86
2022/10/21 08:03:32;;;;;;;11.43;8.60;;;15.80;99.90;;;;;;5033443;28;20197;-85
2022/10/21 08:05:58;;;;;;;12.38;9.32;;;15.90;99.90;;;;;;5042643;28;20215;-86
2022/10/21 08:08:24;;;;;;;12.75;8.63;;;15.90;99.90;;;;;;5042132;28;20192;-86
2022/10/21 08:10:51;;;;;;;10.30;8.65;;;15.90;99.90;;;;;;5041864;28;20219;-85
2022/10/21 08:13:18;;;;;;;15.40;9.60;;;15.90;99.90;;;;;;5041615;28;20544;-86
2022/10/21 08:15:45;;;;;;;9.70;8.48;;;15.80;99.90;;;;;;5041569;28;20200;-86
2022/10/21 08:18:11;;;;;;;9.35;8.40;;;15.90;99.90;;;;;;5042339;28;20183;-86
2022/10/21 08:20:42;;;;;;;9.82;8.77;;;15.90;99.90;;;;;;5040116;28;20223;-86
2022/10/21 08:23:09;;;;;;;9.80;8.90;;;15.80;99.90;;;;;;5041437;28;20189;-86
2022/10/21 08:25:35;;;;;;;11.80;8.63;;;15.70;99.90;;;;;;5040234;28;20208;-85
2022/10/21 08:28:02;;;;;;;10.10;9.10;;;15.70;99.90;;;;;;5041655;28;20191;-86
2022/10/21 08:30:28;;;;;;;10.97;9.33;;;15.60;99.90;;;;;;5040573;28;20253;-86
2022/10/21 08:32:55;;;;;;;10.73;9.60;;;15.50;99.90;;;;;;5042437;28;20520;-86
2022/10/21 08:35:21;;;;;;;12.17;8.43;;;15.60;99.90;;;;;;5042029;28;20217;-86
2022/10/21 08:37:48;;;;;;;9.97;8.17;;;15.70;99.90;;;;;;5042310;28;20210;-85
2022/10/21 08:40:15;;;;;;;9.60;8.60;;;15.70;99.90;;;;;;5042134;28;20207;-86
2022/10/21 08:42:43;;;;;;;11.80;8.73;;;15.70;99.90;;;;;;5044764;28;20186;-85
2022/10/21 08:45:18;;;;;;;13.67;9.70;;;15.70;99.90;;;;;;5046828;28;20204;-86
2022/10/21 08:47:53;;;;;;;10.80;8.63;;;15.60;99.90;;;;;;5046852;28;20193;-86
2022/10/21 08:50:29;;;;;;;12.50;9.00;;;15.60;99.90;;;;;;5049801;28;20220;-86
2022/10/21 08:53:04;;;;;;;9.40;7.63;;;15.60;99.90;;;;;;5043008;28;20199;-86
2022/10/21 08:55:41;;;;;;;11.43;8.13;;;15.60;99.90;;;;;;5038494;28;20203;-86
2022/10/21 08:58:17;;;;;;;14.03;8.97;;;15.60;99.90;;;;;;5042426;28;20255;-86
2022/10/21 09:00:45;;;;;;;12.83;8.87;;;15.60;99.90;;;;;;5040944;28;20200;-86
2022/10/21 09:03:17;;;;;;;11.73;8.33;;;15.60;99.90;;;;;;5041096;28;20191;-86
2022/10/21 09:05:56;;;;;;;13.33;8.43;;;15.60;99.90;;;;;;5041393;28;20371;-85
2022/10/21 09:08:42;;;;;;;13.13;7.83;;;15.60;99.90;;;;;;5041948;28;20185;-87
2022/10/21 09:11:11;;;;;;;12.93;8.00;;;15.60;99.90;;;;;;5040030;28;20291;-86
2022/10/21 09:14:11;;;;;;;11.53;7.80;;;15.70;99.90;;;;;;5050818;28;20183;-86
2022/10/21 09:16:45;;;;;;;9.10;7.43;;;15.80;99.90;;;;;;5044799;28;20179;-88
2022/10/21 09:19:34;;;;;;;8.03;7.10;;;15.80;99.90;;;;;;5051586;28;20168;-86
2022/10/21 09:22:30;;;;;;;11.23;7.33;;;15.80;99.90;;;;;;5034884;28;20185;-86
2022/10/21 09:25:20;;;;;;;9.80;7.47;;;15.80;99.90;;;;;;5034778;28;20713;-86
2022/10/21 09:27:46;;;;;;;8.30;7.30;;;15.90;99.90;;;;;;5037546;28;20197;-85
2022/10/21 09:30:21;;;;;;;10.03;7.30;;;15.90;99.90;;;;;;5036468;28;20228;-85
2022/10/21 09:32:49;;;;;;;9.87;7.10;;;15.80;99.90;;;;;;5037141;28;20186;-86
2022/10/21 09:35:27;;;;;;;6.97;6.17;;;15.90;99.90;;;;;;5036546;28;20219;-86
2022/10/21 09:37:58;;;;;;;8.97;6.90;;;16.00;99.90;;;;;;5030630;28;20241;-86
2022/10/21 09:40:27;;;;;;;6.43;5.73;;;16.00;99.90;;;;;;5017282;28;20298;-85
2022/10/21 09:42:57;;;;;;;8.97;5.70;;;16.00;99.90;;;;;;5037637;28;20188;-85
2022/10/21 09:45:29;;;;;;;8.93;5.50;;;15.90;99.90;;;;;;5037699;28;20201;-85
2022/10/21 09:48:05;;;;;;;8.13;4.80;;;16.00;99.90;;;;;;5037224;28;20204;-85
2022/10/21 09:50:32;;;;;;;8.97;5.30;;;15.90;99.90;;;;;;5039523;28;20205;-85
2022/10/21 09:53:16;;;;;;;6.20;4.57;;;16.00;99.90;;;;;;5041724;28;20206;-85
2022/10/21 09:55:46;;;;;;;5.23;4.40;;;16.10;99.90;;;;;;5041061;28;20613;-85
2022/10/21 09:58:26;;;;;;;5.73;4.57;;;16.10;99.90;;;;;;5037190;28;20189;-86
2022/10/21 10:00:53;;;;;;;5.60;4.17;;;16.10;99.90;;;;;;5040265;28;20203;-86
2022/10/21 10:03:29;;;;;;;6.73;4.27;;;16.10;99.90;;;;;;5040424;28;20177;-86
2022/10/21 10:05:55;;;;;;;4.50;4.10;;;16.10;99.90;;;;;;5040956;28;20196;-85
2022/10/21 10:08:38;;;;;;;4.67;3.63;;;16.30;99.90;;;;;;5040490;28;20193;-85
2022/10/21 10:11:10;;;;;;;6.33;3.60;;;16.30;99.90;;;;;;5040804;28;20211;-85
2022/10/21 10:13:39;;;;;;;4.37;3.43;;;16.40;99.90;;;;;;5051822;28;20683;-86
2022/10/21 10:16:18;;;;;;;6.80;3.53;;;16.40;99.90;;;;;;5035592;28;20194;-87
2022/10/21 10:18:44;;;;;;;4.53;3.47;;;16.30;99.90;;;;;;5039754;28;20204;-85
2022/10/21 10:21:15;;;;;;;5.20;3.50;;;16.30;99.90;;;;;;5038895;28;20229;-85
2022/10/21 10:23:46;;;;;;;6.50;3.57;;;16.30;99.90;;;;;;5040137;28;20192;-88
2022/10/21 10:26:29;;;;;;;4.97;3.10;;;16.40;99.90;;;;;;5054153;28;20252;-89
2022/10/21 10:29:04;;;;;;;6.23;3.60;;;16.50;99.90;;;;;;5031860;28;20188;-86
2022/10/21 10:31:32;;;;;;;4.27;3.23;;;16.40;99.90;;;;;;5023455;28;20208;-86
2022/10/21 10:34:05;;;;;;;7.93;3.20;;;16.50;99.90;;;;;;5037538;28;20215;-86
2022/10/21 10:36:36;;;;;;;4.37;3.00;;;16.50;99.90;;;;;;5035621;28;20177;-86
2022/10/21 10:39:06;;;;;;;4.33;3.37;;;16.60;99.90;;;;;;5037460;28;20188;-86
2022/10/21 10:41:39;;;;;;;3.67;3.30;;;16.70;99.90;;;;;;5037074;28;20578;-86
2022/10/21 10:44:20;;;;;;;4.10;3.57;;;16.70;99.90;;;;;;5034072;28;20238;-87
2022/10/21 10:46:53;;;;;;;7.53;4.27;;;16.80;99.90;;;;;;5036182;28;20264;-86
2022/10/21 10:49:21;;;;;;;3.90;3.17;;;16.80;99.90;;;;;;5035948;28;20181;-88
2022/10/21 10:52:06;;;;;;;7.00;3.67;;;16.80;99.90;;;;;;5035801;28;20457;-85
2022/10/21 10:54:32;;;;;;;6.03;3.70;;;16.90;99.90;;;;;;5035427;28;20823;-87
2022/10/21 10:57:19;;;;;;;5.90;4.10;;;16.90;99.90;;;;;;5026159;28;20717;-86
2022/10/21 10:59:51;;;;;;;3.67;3.33;;;17.00;99.90;;;;;;5050086;28;20334;-86
2022/10/21 11:02:21;;;;;;;7.70;3.77;;;17.10;99.90;;;;;;5023782;28;20190;-86
2022/10/21 11:05:14;;;;;;;4.97;3.70;;;17.10;99.90;;;;;;5031784;28;20190;-86
2022/10/21 11:07:51;;;;;;;9.73;4.30;;;17.00;99.90;;;;;;5035153;28;20189;-86
2022/10/21 11:10:52;;;;;;;6.37;4.10;;;17.00;99.90;;;;;;5030866;28;20217;-87
2022/10/21 11:13:20;;;;;;;4.57;4.10;;;17.10;99.90;;;;;;5029154;28;20750;-87
2022/10/21 11:16:15;;;;;;;6.33;3.67;;;17.30;99.90;;;;;;5035202;28;20211;-89
2022/10/21 11:18:44;;;;;;;5.97;4.10;;;17.40;99.90;;;;;;5033969;28;20463;-88
2022/10/21 11:21:31;;;;;;;8.50;4.00;;;17.20;99.90;;;;;;5034680;28;20559;-85
2022/10/21 11:24:23;;;;;;;4.70;3.70;;;17.40;99.90;;;;;;5031256;28;20232;-87
2022/10/21 11:27:05;;;;;;;7.27;4.20;;;17.40;99.90;;;;;;5033111;28;20185;-86
2022/10/21 11:29:36;;;;;;;5.17;3.93;;;17.40;99.90;;;;;;5035169;28;20202;-87
2022/10/21 11:32:25;;;;;;;4.83;3.83;;;17.40;99.90;;;;;;5020638;28;20262;-87
2022/10/21 11:35:29;;;;;;;3.92;3.60;;;17.40;99.90;;;;;;5034270;28;20232;-87
2022/10/21 11:38:24;;;;;;;4.50;3.57;;;17.60;99.90;;;;;;5023132;28;20194;-87
2022/10/21 11:40:58;;;;;;;5.70;3.73;;;17.60;99.90;;;;;;5034406;28;20203;-87
2022/10/21 11:43:32;;;;;;;4.30;3.90;;;17.50;99.90;;;;;;5034659;28;20192;-87
2022/10/21 11:46:25;;;;;;;6.40;3.73;;;17.40;99.90;;;;;;5035039;28;20185;-88
2022/10/21 11:49:00;;;;;;;5.60;3.87;;;17.40;99.90;;;;;;5028538;28;20194;-89
2022/10/21 11:51:39;;;;;;;4.55;3.47;;;17.60;99.90;;;;;;5029298;28;20217;-88
2022/10/21 11:54:32;;;;;;;3.70;3.40;;;17.70;99.90;;;;;;5028937;28;20300;-88
2022/10/21 11:57:04;;;;;;;3.20;3.00;;;17.80;99.90;;;;;;5028929;28;20610;-88
2022/10/21 11:59:29;;;;;;;4.07;3.00;;;17.90;99.90;;;;;;5027447;28;20205;-89
2022/10/21 12:01:58;;;;;;;4.18;3.10;;;17.90;99.90;;;;;;5030222;28;20179;-90
2022/10/21 12:04:49;;;;;;;4.68;3.42;;;17.90;99.90;;;;;;5028756;28;20187;-89
2022/10/21 12:07:41;;;;;;;6.25;3.50;;;18.00;99.90;;;;;;5030077;28;20194;-88
2022/10/21 12:10:10;;;;;;;4.88;3.15;;;17.80;99.90;;;;;;5027777;28;20206;-88
2022/10/21 12:12:39;;;;;;;3.83;3.05;;;17.90;99.90;;;;;;5028338;28;20190;-90
2022/10/21 12:15:34;;;;;;;7.47;3.05;;;17.90;99.90;;;;;;5029339;28;20203;-88
2022/10/21 12:18:03;;;;;;;4.53;2.75;;;17.90;99.90;;;;;;5027906;28;20714;-89
2022/10/21 12:20:30;;;;;;;4.18;3.00;;;18.00;99.90;;;;;;5026979;28;20669;-88
2022/10/21 12:23:03;;;;;;;4.53;2.80;;;18.00;99.90;;;;;;5032349;28;20712;-89
2022/10/21 12:26:07;;;;;;;3.30;3.00;;;17.90;99.90;;;;;;5012509;28;20221;-89
2022/10/21 12:28:50;;;;;;;3.67;3.23;;;17.90;99.90;;;;;;5027171;28;20199;-88
2022/10/21 12:31:21;;;;;;;3.28;2.97;;;18.00;99.90;;;;;;5032467;28;20214;-88
2022/10/21 12:33:48;;;;;;;2.97;2.60;;;18.00;99.90;;;;;;5032548;28;20188;-87
2022/10/21 12:36:23;;;;;;;3.78;2.70;;;18.00;99.90;;;;;;5035131;28;20198;-87
2022/10/21 12:38:49;;;;;;;4.07;3.28;;;18.00;99.90;;;;;;5035045;28;20216;-88
2022/10/21 12:41:34;;;;;;;5.68;2.90;;;18.10;99.90;;;;;;5036033;28;20203;-87
2022/10/21 12:43:59;;;;;;;5.95;2.90;;;18.20;99.90;;;;;;5034791;28;20187;-87
2022/10/21 12:46:47;;;;;;;3.72;2.70;;;18.20;99.90;;;;;;5036188;28;20192;-86
2022/10/21 12:49:24;;;;;;;3.20;2.70;;;18.20;99.90;;;;;;5033313;28;20291;-86
2022/10/21 12:52:01;;;;;;;2.70;2.50;;;18.20;99.90;;;;;;5033842;28;20254;-89
2022/10/21 12:54:35;;;;;;;2.88;2.60;;;18.20;99.90;;;;;;5033847;28;20209;-87
2022/10/21 12:57:10;;;;;;;5.65;2.47;;;18.30;99.90;;;;;;5034764;28;20236;-89
2022/10/21 12:59:42;;;;;;;2.80;2.55;;;18.20;99.90;;;;;;5055478;28;20238;-88
2022/10/21 13:02:24;;;;;;;3.75;2.50;;;18.20;99.90;;;;;;5056430;28;20196;-87